Station info - map view · info · telemetry · weather · raw · status · beacons · messages · bulletins · browse · moving · my account
Callsign, ship name or locator: Clear       
It is possible to search using wildcards (*?) after a prefix. Example: OH*
APRS station K9UL-5 - show graphs
Map loading...
Comment: 146.520MHz T100 k9ul@arrl.net
Mic-E message: In service
Location: 32°11.22' N 110°54.79' W - locator DM42NE04KV - show map - static map
2.5 miles South bearing 162° from Tucson, Pima County, Arizona, United States [?]
3.3 miles East bearing 105° from South Tucson, Pima County, Arizona, United States
60.7 miles North bearing 2° from Heroica Nogales, Sonora, Mexico
Last position: 2019-04-08 13:48:06 EDT (15d 2h2m ago)
2019-04-08 10:48:06 MST local time at Tucson, United States [?]
Altitude: 2549 ft
Course:
Device: Kenwood: TM-D710 (rig)
Last path: K9UL-5>S2QQRR via K7TUS,WIDE1*,WIDE2-1,qAS,K0OTZ-7 (good)
Positions stored: 12193
Other SSIDs: K9UL-7 K9UL-8 K9UL-9
Stations near current position of K9UL-5 - show more
callsign distance last heard - EDT      callsign distance last heard - EDT
KJ7AEA-90.7 miles 203°2019-04-23 09:13:10 EW75041.7 miles 56°2019-04-23 15:36:02
KJ7CRF B2.2 miles 28°2019-04-23 15:49:36 KJ7CRF-B2.2 miles 28°2019-04-23 15:49:46
K7XPO-92.2 miles 339°2019-04-23 00:30:04 K7LHR-72.5 miles 268°2019-04-23 14:08:05
AA7HX2.5 miles 74°2019-04-22 18:16:39 KG7GNN B2.5 miles 342°2019-04-23 15:44:05
KG7GNN-B2.5 miles 342°2019-04-23 15:44:15 EL-W7KMV2.6 miles 13°2019-04-12 20:00:27
W7KMV-92.6 miles 14°2019-04-23 15:46:20 W7KMV-102.6 miles 14°2019-04-23 07:22:45
KG7RWN B2.7 miles 163°2019-04-23 15:45:43 KG7RWN-B2.7 miles 163°2019-04-23 15:45:53
KG7RWN2.7 miles 163°2019-04-23 15:48:02 KN2SNC-92.7 miles 60°2019-04-23 15:47:03
aprsdTUS3.0 miles 36°2019-04-23 15:40:18 N7HND3.0 miles 36°2019-04-23 15:42:07
EW19563.2 miles 327°2019-04-23 15:47:14 N7SPW3.4 miles 38°2019-04-21 02:47:53
Stations which heard K9UL-5 directly on radio –
callsign pkts first heard - EDT last heard longest (tx => rx) longest at - EDT
SAMTNM 20 2019-04-05 11:24:34 2019-04-05 13:40:50 DM75AR > DM66XU 77.2 miles 357° 2019-04-05 13:40:50
SANDIA 62 2019-04-05 13:44:06 2019-04-05 16:59:54 DM64ND > DM65SF 79.3 miles 19° 2019-04-05 16:59:54
HELIO 11 2019-04-05 21:41:40 2019-04-05 22:39:50 DM52IG > DM52BP 41.8 miles 308° 2019-04-05 21:41:40
ALMOSA 9 2019-04-05 10:55:47 2019-04-05 11:17:52 DM77BK > DM77BM 5.7 miles 21° 2019-04-05 11:17:52
CAPILA 5 2019-04-05 16:24:21 2019-04-05 16:55:24 DM64ME > DM64TQ 45.2 miles 41° 2019-04-05 16:55:24
CABALL 46 2019-04-05 17:51:40 2019-04-05 19:46:32 DM62FL > DM62JX 38.3 miles 27° 2019-04-05 19:46:32
ELKMTN 2 2019-04-05 13:46:39 2019-04-05 14:02:21 DM65WM > DM75FS 36.4 miles 64° 2019-04-05 14:02:21
JACKPK 8 2019-04-05 20:35:10 2019-04-05 21:25:47 DM52MF > DM52SN 40.4 miles 52° 2019-04-05 21:25:09
MULE 1 2019-04-05 22:01:47 2019-04-05 22:01:47 DM52EI > DM51AL 63.5 miles 197° 2019-04-05 22:01:47
TAOSKI 15 2019-04-05 11:38:43 2019-04-05 13:13:42 DM66WA > DM76GN 52.8 miles 41° 2019-04-05 13:13:42
WOLFCK 4 2019-04-05 10:42:18 2019-04-05 11:47:19 DM67XB > DM67OL 53.1 miles 305° 2019-04-05 11:47:19
KC0D 7 2019-04-04 11:38:07 2019-04-04 12:33:21 DM79FQ > DM79PI 52.0 miles 113° 2019-04-04 12:33:21
N7HND 2 2019-04-08 13:38:32 2019-04-08 13:45:19 DM42NE > DM42NF 3.6 miles 28° 2019-04-08 13:38:32
SWANMT 17 2019-04-04 19:31:51 2019-04-05 08:25:33 DM79DO > DM69XO 17.0 miles 264° 2019-04-04 19:46:53
METHOD 26 2019-04-05 09:15:37 2019-04-05 10:19:21 DM68WU > DM68XK 29.6 miles 167° 2019-04-05 09:15:37
K0NR-1 1 2019-04-05 09:31:09 2019-04-05 09:31:09 DM68WQ > DM78AV 15.9 miles 25° 2019-04-05 09:31:09
K7LHR-10 1 2019-04-05 23:34:37 2019-04-05 23:34:37 DM41PX > DM41PX 297.2 yards 325° 2019-04-05 23:34:37
QUAIL 13 2019-04-05 08:30:59 2019-04-05 09:01:15 DM69VI > DM69TA 25.0 miles 201° 2019-04-05 08:30:59
BVILLE 48 2019-04-04 12:24:24 2019-04-05 08:11:38 DM69WN > DM79CQ 20.4 miles 69° 2019-04-05 08:11:38
K0XK-5 8 2019-04-04 11:32:36 2019-04-04 12:31:55 DM79FP > DM79OO 41.4 miles 95° 2019-04-04 12:31:55
N0EB 2 2019-04-05 09:37:07 2019-04-05 09:43:10 DM68WO > DM68XM 6.5 miles 138° 2019-04-05 09:37:07
N0EPA-1 1 2019-04-04 12:20:33 2019-04-04 12:20:33 DM79GQ > DN70KE 40.0 miles 29° 2019-04-04 12:20:33
KM5VY-12 4 2019-04-05 14:39:47 2019-04-05 15:46:01 DM64PW > DM65QB 11.4 miles 40° 2019-04-05 15:46:01
W0ARP 9 2019-04-04 10:36:47 2019-04-05 07:52:31 DM79BQ > DM79QL 66.7 miles 102° 2019-04-05 07:52:31
WD4IXD-10 29 2019-04-04 10:24:31 2019-04-04 12:34:43 DM79FP > DM79LM 32.0 miles 109° 2019-04-04 12:34:43
K5RHD-10 2 2019-04-04 11:37:08 2019-04-04 12:25:39 DM79GQ > DM79KU 24.0 miles 60° 2019-04-04 12:25:39
K0NTS-5 20 2019-04-04 12:07:23 2019-04-04 20:55:39 DM79FT > DM79GR 8.7 miles 130° 2019-04-04 20:55:39
W0UPS-10 1 2019-04-04 12:29:01 2019-04-04 12:29:01 DM79FQ > DN70JN 62.8 miles 16° 2019-04-04 12:29:01
W0ARP-3 10 2019-04-04 10:28:37 2019-04-04 14:33:49 DM79FT > DM79QL 53.8 miles 114° 2019-04-04 14:33:49
KB0TVJ-1 1 2019-04-04 12:30:56 2019-04-04 12:30:56 DM79FQ > DN70JB 32.9 miles 36° 2019-04-04 12:30:56
N6BA-10 1 2019-04-04 12:28:00 2019-04-04 12:28:00 DM79FQ > DM79OI 45.6 miles 119° 2019-04-04 12:28:00
WA0GEH-10 34 2019-04-04 10:24:10 2019-04-04 20:55:44 DM79FP > DN70KB 37.1 miles 38° 2019-04-04 12:35:20
WB7QMR-10 2 2019-04-08 12:01:34 2019-04-08 12:03:05 DM42NC > DM42NC 2.1 miles 142° 2019-04-08 12:03:05
K1DEG-1 7 2019-04-04 11:40:59 2019-04-04 12:27:58 DM79FQ > DN70NG 51.7 miles 40° 2019-04-04 12:27:58
K7TUS 44 2019-04-05 22:50:18 2019-04-08 13:48:06 DM41LR > DM42OK 52.1 miles 18° 2019-04-06 00:35:55

Only position packets which were originated by the station are shown here. The range statistics show some extra long hops, because some digipeaters do not correctly add themselves to the digipeater path. Please check the raw packets.
About this site
This page shows real-time information collected from the Automatic Position Reporting System Internet network (APRS-IS). APRS is used by amateur (ham) radio operators to transmit real-time position information, weather data, telemetry and messages over the radio. A vehicle equipped with a GPS receiver, a VHF transmitter or HF transceiver and a small computer device called a tracker transmits it's location, speed and course in a small data packet, which is then received by a nearby iGate receiving site which forwards the packet on the Internet. Systems connected to the Internet can send information on the APRS-IS without a radio transmitter, or collect and display information transmitted anywhere in the world.
FAQ · Blog · Discussion group · Linking to aprs.fi · AIS sites · Service status · Database statistics · Advertising on aprs.fi · Technical details · API · Change log · Planned changes · Credits and thanks · Terms Of Service · iPhone/iPad APRS